Time;durP1;ratioP1;P1;durP2;ratioP2;P2;SDS_P1;SDS_P2;PMS_P1;PMS_P2;Temp;Humidity;BMP_temperature;BMP_pressure;BME280_temperature;BME280_humidity;BME280_pressure;Samples;Min_cycle;Max_cycle;Signal;HPM_P1;HPM_P2
2022/11/03 00:01:52;;;;;;;3.42;0.93;;;18.60;58.30;;;;;;10449321;28;20040;-65
2022/11/03 00:06:54;;;;;;;2.00;0.80;;;18.60;58.20;;;;;;10425519;28;20049;-64
2022/11/03 00:11:54;;;;;;;2.75;1.02;;;18.60;58.20;;;;;;10409035;28;20104;-65
2022/11/03 00:16:55;;;;;;;3.70;0.77;;;18.60;58.00;;;;;;10412053;28;20643;-65
2022/11/03 00:21:59;;;;;;;1.05;0.63;;;18.50;57.90;;;;;;10424686;28;20034;-65
2022/11/03 00:27:00;;;;;;;2.83;1.60;;;18.50;57.80;;;;;;10409461;28;20520;-65
2022/11/03 00:32:00;;;;;;;3.20;0.80;;;18.60;57.80;;;;;;10411127;28;20017;-64
2022/11/03 00:37:01;;;;;;;2.08;0.80;;;18.50;58.30;;;;;;10465595;28;20057;-65
2022/11/03 00:42:02;;;;;;;2.38;1.13;;;18.40;58.80;;;;;;10420846;28;20451;-65
2022/11/03 00:47:02;;;;;;;2.92;0.80;;;18.40;59.20;;;;;;10410079;28;20024;-65
2022/11/03 00:52:03;;;;;;;2.13;0.90;;;18.30;59.80;;;;;;10449898;28;20060;-65
2022/11/03 00:57:04;;;;;;;2.33;0.75;;;18.30;60.20;;;;;;10432007;28;20063;-63
2022/11/03 01:02:04;;;;;;;2.25;1.02;;;18.30;60.80;;;;;;10446942;28;20476;-64
2022/11/03 01:07:06;;;;;;;1.35;0.77;;;18.30;61.10;;;;;;10423437;28;20061;-64
2022/11/03 01:12:15;;;;;;;2.85;0.93;;;18.30;61.40;;;;;;10406310;28;20027;-65
2022/11/03 01:17:25;;;;;;;2.30;1.08;;;18.20;61.60;;;;;;10445343;28;20115;-65
2022/11/03 01:22:26;;;;;;;2.22;1.00;;;18.20;62.00;;;;;;10417592;28;20500;-64
2022/11/03 01:27:26;;;;;;;2.03;1.02;;;18.20;62.10;;;;;;10410017;28;20026;-64
2022/11/03 01:32:27;;;;;;;1.88;0.60;;;18.20;61.90;;;;;;10444758;28;20463;-65
2022/11/03 01:37:28;;;;;;;3.05;0.70;;;18.30;60.90;;;;;;10421918;28;20029;-63
2022/11/03 01:42:28;;;;;;;1.52;0.90;;;18.30;60.30;;;;;;10406720;28;20116;-64
2022/11/03 01:47:33;;;;;;;1.63;0.90;;;18.40;59.90;;;;;;10410230;28;20359;-65
2022/11/03 01:52:55;;;;;;;2.63;0.90;;;18.40;59.60;;;;;;10445780;28;20056;-65
2022/11/03 01:58:12;;;;;;;1.95;0.65;;;18.40;59.30;;;;;;10435799;28;20053;-64
2022/11/03 02:03:15;;;;;;;2.75;0.82;;;18.40;59.10;;;;;;10444606;28;20036;-65
2022/11/03 02:08:33;;;;;;;1.95;0.80;;;18.40;58.80;;;;;;10462492;28;20110;-64
2022/11/03 02:13:34;;;;;;;1.63;0.50;;;18.40;58.60;;;;;;10418954;28;20029;-65
2022/11/03 02:18:34;;;;;;;2.28;0.60;;;18.40;58.40;;;;;;10446774;28;20532;-65
2022/11/03 02:24:00;;;;;;;1.40;0.60;;;18.40;58.20;;;;;;10413674;28;20372;-64
2022/11/03 02:29:01;;;;;;;1.40;0.60;;;18.40;58.10;;;;;;10425763;28;20029;-65
2022/11/03 02:34:21;;;;;;;1.65;0.60;;;18.40;58.00;;;;;;10405437;28;20482;-65
2022/11/03 02:39:55;;;;;;;1.15;0.47;;;18.30;58.50;;;;;;10403773;28;20033;-64
2022/11/03 02:45:00;;;;;;;1.40;0.65;;;18.30;59.30;;;;;;10420052;28;20213;-64
2022/11/03 02:50:07;;;;;;;2.35;0.73;;;18.30;59.30;;;;;;10403497;28;20021;-65
2022/11/03 02:55:34;;;;;;;2.03;0.73;;;18.20;59.90;;;;;;10403717;28;20065;-64
2022/11/03 03:00:51;;;;;;;1.70;0.60;;;18.20;60.60;;;;;;10408923;28;20025;-65
2022/11/03 03:05:58;;;;;;;2.30;0.60;;;18.10;60.90;;;;;;10460675;28;20037;-64
2022/11/03 03:11:02;;;;;;;1.80;0.50;;;18.10;61.10;;;;;;10462583;28;20488;-64
2022/11/03 03:16:23;;;;;;;1.13;0.40;;;18.10;61.30;;;;;;10453070;28;20029;-65
2022/11/03 03:21:28;;;;;;;3.47;0.70;;;18.10;61.80;;;;;;10429883;28;20021;-65
2022/11/03 03:26:38;;;;;;;1.48;0.60;;;18.10;61.00;;;;;;10448431;28;20028;-63
2022/11/03 03:31:44;;;;;;;2.53;0.95;;;18.20;60.30;;;;;;10410463;28;20025;-65
2022/11/03 03:36:47;;;;;;;1.02;0.40;;;18.30;59.80;;;;;;10410056;28;20022;-65
2022/11/03 03:41:48;;;;;;;0.75;0.40;;;18.30;59.30;;;;;;10435481;28;20045;-64
2022/11/03 03:46:59;;;;;;;0.85;0.40;;;18.30;59.00;;;;;;10451867;28;20025;-65
2022/11/03 03:52:02;;;;;;;1.40;0.70;;;18.30;58.80;;;;;;10454754;28;20025;-65
2022/11/03 03:57:05;;;;;;;2.20;0.80;;;18.30;58.50;;;;;;10409040;28;20052;-66
2022/11/03 04:02:06;;;;;;;1.75;0.60;;;18.30;58.20;;;;;;10392853;28;20040;-65
2022/11/03 04:23:06;;;;;;;1.30;0.50;;;18.20;58.90;;;;;;10441959;28;20041;-65
2022/11/03 04:28:13;;;;;;;1.33;0.70;;;18.10;59.00;;;;;;10410050;28;20443;-64
2022/11/03 04:33:18;;;;;;;1.25;0.52;;;18.10;59.50;;;;;;10407703;28;20034;-65
2022/11/03 04:38:24;;;;;;;1.13;0.55;;;18.10;60.00;;;;;;10403930;28;20041;-65
2022/11/03 04:43:34;;;;;;;1.42;0.75;;;18.00;60.40;;;;;;10444860;28;20138;-65
2022/11/03 04:48:35;;;;;;;1.65;0.47;;;18.00;60.80;;;;;;10446820;28;20021;-64
2022/11/03 04:53:36;;;;;;;2.35;0.65;;;18.00;61.10;;;;;;10444414;28;20033;-64
2022/11/03 04:58:36;;;;;;;1.17;0.50;;;18.00;61.40;;;;;;10423471;28;20013;-65
2022/11/03 05:03:39;;;;;;;3.03;0.55;;;18.00;61.60;;;;;;10421537;28;20443;-65
2022/11/03 05:08:42;;;;;;;1.00;0.50;;;18.00;60.80;;;;;;10440219;28;20026;-63
2022/11/03 05:13:43;;;;;;;0.95;0.50;;;18.10;60.60;;;;;;10400079;28;20120;-65
2022/11/03 05:18:48;;;;;;;1.55;0.70;;;18.00;61.00;;;;;;10414978;28;20865;-64
2022/11/03 05:24:04;;;;;;;1.00;0.32;;;18.00;61.30;;;;;;10419971;28;20410;-65
2022/11/03 05:29:18;;;;;;;1.65;0.80;;;18.00;61.50;;;;;;10435774;28;20055;-64
2022/11/03 05:34:40;;;;;;;0.73;0.30;;;17.90;61.80;;;;;;10447621;28;20437;-65
2022/11/03 05:39:45;;;;;;;0.82;0.50;;;17.90;62.30;;;;;;10448346;28;20029;-64
2022/11/03 05:44:45;;;;;;;3.45;0.90;;;17.90;62.40;;;;;;10432604;28;20044;-63
2022/11/03 05:49:49;;;;;;;3.65;1.00;;;17.90;63.50;;;;;;10388499;28;20503;-67
2022/11/03 05:54:52;;;;;;;6.25;1.55;;;18.10;64.50;;;;;;10389864;28;20053;-61
2022/11/03 05:59:54;;;;;;;4.22;1.23;;;18.20;64.30;;;;;;10446454;28;20025;-65
2022/11/03 06:04:55;;;;;;;6.53;1.05;;;18.30;65.00;;;;;;10462124;28;20060;-63
2022/11/03 06:09:57;;;;;;;5.68;1.00;;;18.40;65.50;;;;;;10428644;28;20423;-66
2022/11/03 06:14:58;;;;;;;6.30;1.75;;;18.40;65.70;;;;;;10410102;28;20029;-66
2022/11/03 06:19:59;;;;;;;7.55;1.10;;;18.40;66.30;;;;;;10439223;28;20608;-66
2022/11/03 06:25:30;;;;;;;7.93;1.77;;;18.30;65.60;;;;;;10410426;28;20030;-65
2022/11/03 06:30:38;;;;;;;8.82;1.35;;;18.30;66.60;;;;;;10404245;28;20076;-67
2022/11/03 06:35:39;;;;;;;10.02;2.47;;;18.20;65.50;;;;;;10408015;28;20079;-66
2022/11/03 06:40:40;;;;;;;20.35;3.55;;;18.10;65.80;;;;;;10460497;28;20045;-64
2022/11/03 06:45:53;;;;;;;22.58;3.75;;;18.10;65.90;;;;;;10425761;28;20037;-63
2022/11/03 06:50:56;;;;;;;14.30;3.10;;;18.10;66.20;;;;;;10449071;28;20025;-65
2022/11/03 06:55:58;;;;;;;14.32;2.20;;;18.10;66.40;;;;;;10466041;28;20049;-65
2022/11/03 07:01:09;;;;;;;15.38;2.28;;;18.20;66.60;;;;;;10443048;28;20125;-62
2022/11/03 07:06:10;;;;;;;32.35;4.20;;;18.10;66.30;;;;;;10453162;28;20423;-66
2022/11/03 07:11:23;;;;;;;21.90;4.47;;;18.10;66.50;;;;;;10410518;28;20032;-64
2022/11/03 07:16:32;;;;;;;14.52;2.88;;;18.10;66.40;;;;;;10441919;28;20391;-66
2022/11/03 07:21:53;;;;;;;11.88;3.05;;;18.10;66.60;;;;;;10427382;28;20053;-65
2022/11/03 07:27:05;;;;;;;11.55;3.72;;;18.10;66.70;;;;;;10412780;28;20017;-65
2022/11/03 07:32:19;;;;;;;2.85;1.10;;;18.00;66.60;;;;;;10420865;28;20021;-66
2022/11/03 07:37:24;;;;;;;8.82;2.00;;;18.00;66.50;;;;;;10431649;28;20080;-65
2022/11/03 07:42:26;;;;;;;5.20;2.05;;;17.90;66.30;;;;;;10416253;28;20026;-65
2022/11/03 07:47:27;;;;;;;7.85;2.95;;;18.00;66.30;;;;;;10429977;28;20043;-66
2022/11/03 07:52:28;;;;;;;7.88;2.05;;;17.90;66.20;;;;;;10467180;28;20040;-66
2022/11/03 07:57:30;;;;;;;7.07;1.95;;;17.90;66.30;;;;;;10448891;28;20055;-65
2022/11/03 08:02:47;;;;;;;6.45;2.03;;;17.90;66.30;;;;;;10466656;28;20426;-66
2022/11/03 08:07:48;;;;;;;8.60;1.95;;;17.90;66.40;;;;;;10439211;28;20030;-65
2022/11/03 08:12:49;;;;;;;5.10;1.27;;;17.90;66.40;;;;;;10411498;28;20835;-66
2022/11/03 08:17:49;;;;;;;3.55;1.40;;;17.90;66.30;;;;;;10433170;28;20045;-65
2022/11/03 08:22:50;;;;;;;3.33;0.88;;;17.90;66.40;;;;;;10453915;28;20117;-65
2022/11/03 08:27:51;;;;;;;5.40;1.40;;;17.90;66.40;;;;;;10436789;28;20044;-64
2022/11/03 08:32:51;;;;;;;6.60;1.60;;;17.90;66.50;;;;;;10465700;28;20501;-65
2022/11/03 08:37:52;;;;;;;5.45;1.17;;;17.90;66.50;;;;;;10443937;28;20060;-66
2022/11/03 08:42:52;;;;;;;7.97;1.77;;;17.90;66.50;;;;;;10421579;28;20037;-66
2022/11/03 08:47:53;;;;;;;4.47;1.38;;;17.90;66.70;;;;;;10434355;28;20129;-65
2022/11/03 08:52:54;;;;;;;8.93;1.60;;;17.90;66.90;;;;;;10407104;28;20112;-66
2022/11/03 08:57:54;;;;;;;4.55;1.13;;;17.90;66.90;;;;;;10430458;28;20125;-65
2022/11/03 09:02:55;;;;;;;3.38;1.30;;;17.90;66.90;;;;;;10425622;28;20143;-65
2022/11/03 09:07:56;;;;;;;2.80;1.05;;;17.90;66.90;;;;;;10429894;28;20029;-65
2022/11/03 09:12:56;;;;;;;4.05;1.10;;;17.90;66.70;;;;;;10445629;28;20094;-65
2022/11/03 09:17:57;;;;;;;4.07;1.20;;;17.90;67.10;;;;;;10416668;28;20035;-65
2022/11/03 09:22:58;;;;;;;2.85;1.00;;;17.90;66.60;;;;;;10428974;28;20041;-65
2022/11/03 09:27:58;;;;;;;5.53;1.30;;;17.90;66.70;;;;;;10439450;28;20120;-66
2022/11/03 09:32:59;;;;;;;5.68;1.50;;;17.90;66.70;;;;;;10406722;28;20447;-65
2022/11/03 09:38:00;;;;;;;2.78;1.02;;;17.90;66.70;;;;;;10405273;28;20100;-65
2022/11/03 09:43:01;;;;;;;3.70;1.20;;;17.80;66.70;;;;;;10389173;28;20053;-65
2022/11/03 09:48:01;;;;;;;3.97;1.23;;;17.90;66.80;;;;;;10405042;28;20018;-65
2022/11/03 09:53:02;;;;;;;3.78;1.30;;;17.90;66.70;;;;;;10406010;28;20029;-65
2022/11/03 09:58:13;;;;;;;4.15;1.00;;;17.90;66.80;;;;;;10404680;28;20019;-65
2022/11/03 10:03:16;;;;;;;4.82;1.23;;;17.90;66.70;;;;;;10404527;28;20018;-67
2022/11/03 10:08:26;;;;;;;7.43;1.77;;;17.90;66.70;;;;;;10404400;28;20145;-65
2022/11/03 10:13:34;;;;;;;;;;;17.90;66.70;;;;;;10412841;28;20025;-65
2022/11/03 10:18:36;;;;;;;5.35;2.35;;;17.90;66.70;;;;;;10434991;28;19901;-65
2022/11/03 10:23:36;;;;;;;4.38;1.35;;;17.90;66.80;;;;;;10435889;28;20025;-66
2022/11/03 10:28:37;;;;;;;3.20;1.30;;;17.90;66.80;;;;;;10405005;28;20480;-66
2022/11/03 10:33:49;;;;;;;2.55;0.98;;;17.90;66.90;;;;;;10424371;28;20024;-65
2022/11/03 10:38:49;;;;;;;3.10;0.90;;;17.90;66.90;;;;;;10428721;28;20411;-65
2022/11/03 10:44:09;;;;;;;3.67;1.02;;;17.90;67.00;;;;;;10461517;28;20044;-65
2022/11/03 10:49:17;;;;;;;3.42;1.30;;;17.80;66.90;;;;;;10445032;28;20021;-66
2022/11/03 10:54:20;;;;;;;3.42;0.98;;;17.80;66.90;;;;;;10461097;28;20102;-65
2022/11/03 10:59:33;;;;;;;4.65;1.05;;;17.80;67.00;;;;;;10445849;28;20033;-64
2022/11/03 11:04:34;;;;;;;3.53;1.17;;;17.80;67.00;;;;;;10456362;28;20036;-66
2022/11/03 11:09:35;;;;;;;3.70;1.45;;;17.80;67.30;;;;;;10441124;28;20014;-66
2022/11/03 11:14:49;;;;;;;5.35;1.38;;;17.90;67.90;;;;;;10449396;28;20435;-66
2022/11/03 11:20:29;;;;;;;8.02;2.42;;;17.90;67.90;;;;;;10441346;28;20356;-65
2022/11/03 11:26:08;;;;;;;5.93;1.75;;;18.00;67.70;;;;;;10443705;28;20044;-67
2022/11/03 11:31:31;;;;;;;2.65;0.82;;;17.90;67.30;;;;;;10420531;28;20092;-66
2022/11/03 11:36:31;;;;;;;4.50;1.00;;;17.90;67.20;;;;;;10402574;28;20624;-66
2022/11/03 11:42:14;;;;;;;3.88;1.13;;;17.90;67.30;;;;;;10421905;28;20108;-66
2022/11/03 11:47:45;;;;;;;3.55;0.82;;;17.90;67.30;;;;;;10442600;28;20029;-66
2022/11/03 11:53:22;;;;;;;4.80;1.10;;;17.90;67.20;;;;;;10430631;28;20028;-66
2022/11/03 11:58:31;;;;;;;3.35;1.50;;;17.90;67.20;;;;;;10446452;28;20648;-66
2022/11/03 12:03:42;;;;;;;5.13;1.07;;;17.90;67.20;;;;;;10434895;28;20017;-66
2022/11/03 12:08:43;;;;;;;4.45;1.08;;;17.90;67.30;;;;;;10425929;28;20022;-66
2022/11/03 12:13:50;;;;;;;3.50;1.23;;;17.90;67.30;;;;;;10420182;28;20359;-66
2022/11/03 12:18:51;;;;;;;3.33;1.40;;;18.00;67.30;;;;;;10433633;28;20162;-66
2022/11/03 12:23:52;;;;;;;3.40;0.80;;;17.90;67.30;;;;;;10440818;28;20021;-67
2022/11/03 12:28:52;;;;;;;2.40;0.85;;;17.90;67.30;;;;;;10437453;28;20108;-65
2022/11/03 12:33:54;;;;;;;1.85;0.75;;;17.90;67.30;;;;;;10426254;28;20087;-65
2022/11/03 12:38:54;;;;;;;2.55;0.90;;;17.90;67.40;;;;;;10465594;28;20079;-65
2022/11/03 12:43:55;;;;;;;2.42;1.00;;;17.90;67.40;;;;;;10465039;28;20707;-66
2022/11/03 12:48:56;;;;;;;3.25;1.33;;;18.00;67.50;;;;;;10436549;28;20042;-65
2022/11/03 12:53:56;;;;;;;2.33;0.95;;;18.00;67.50;;;;;;10401673;28;20100;-66
2022/11/03 12:58:57;;;;;;;2.58;1.10;;;18.00;67.60;;;;;;10420262;28;20017;-65
2022/11/03 13:03:58;;;;;;;3.65;1.05;;;18.00;67.60;;;;;;10413838;28;20124;-66
2022/11/03 13:08:59;;;;;;;3.20;1.02;;;18.00;67.60;;;;;;10447468;28;20070;-66
2022/11/03 13:14:00;;;;;;;2.55;1.10;;;18.00;67.60;;;;;;10450855;28;20025;-66
2022/11/03 13:19:00;;;;;;;3.20;1.38;;;18.00;67.60;;;;;;10446161;28;20039;-66
2022/11/03 13:24:01;;;;;;;2.08;0.80;;;18.00;67.60;;;;;;10425965;28;20527;-66
2022/11/03 13:29:02;;;;;;;1.35;0.80;;;18.00;67.60;;;;;;10427739;28;20049;-65
2022/11/03 13:34:02;;;;;;;2.55;0.80;;;18.00;67.70;;;;;;10441329;28;20031;-66
2022/11/03 13:39:03;;;;;;;2.67;0.80;;;18.00;67.70;;;;;;10448193;28;20044;-66
2022/11/03 13:44:04;;;;;;;1.63;0.93;;;18.00;67.80;;;;;;10447805;28;20119;-66
2022/11/03 13:49:05;;;;;;;2.17;0.93;;;17.90;67.70;;;;;;10423593;28;20547;-65
2022/11/03 13:54:05;;;;;;;2.70;1.27;;;18.00;67.80;;;;;;10427219;28;20132;-66
2022/11/03 13:59:06;;;;;;;2.00;0.70;;;18.00;67.80;;;;;;10441992;28;20048;-66
2022/11/03 14:04:07;;;;;;;2.85;1.17;;;18.00;67.80;;;;;;10425193;28;20033;-66
2022/11/03 14:09:07;;;;;;;3.20;1.05;;;17.90;67.80;;;;;;10404737;28;20166;-66
2022/11/03 14:14:08;;;;;;;2.15;1.48;;;17.90;67.80;;;;;;10432662;28;20544;-66
2022/11/03 14:19:09;;;;;;;2.67;0.80;;;17.90;67.80;;;;;;10447038;28;20639;-66
2022/11/03 14:24:09;;;;;;;2.85;1.20;;;17.90;67.90;;;;;;10422222;28;20069;-66
2022/11/03 14:29:10;;;;;;;1.73;0.80;;;17.90;67.90;;;;;;10405110;28;20125;-66
2022/11/03 14:34:11;;;;;;;2.00;0.65;;;17.90;67.90;;;;;;10405110;28;20499;-66
2022/11/03 14:39:11;;;;;;;3.10;0.85;;;17.90;67.90;;;;;;10404101;28;20719;-66
2022/11/03 14:44:12;;;;;;;2.30;1.10;;;17.80;67.90;;;;;;10387567;28;20113;-66
2022/11/03 14:49:13;;;;;;;1.58;0.82;;;17.80;67.90;;;;;;10441589;28;20557;-66
2022/11/03 14:54:13;;;;;;;2.38;0.98;;;17.80;67.90;;;;;;10403483;28;20141;-66
2022/11/03 14:59:14;;;;;;;1.50;1.02;;;17.80;68.00;;;;;;10404608;28;20032;-66
2022/11/03 15:04:15;;;;;;;2.05;0.77;;;17.80;68.00;;;;;;10403851;28;20053;-65
2022/11/03 15:09:16;;;;;;;2.42;1.17;;;17.80;68.00;;;;;;10433347;28;20790;-65
2022/11/03 15:14:16;;;;;;;2.35;1.13;;;17.80;68.00;;;;;;10463004;28;20029;-65
2022/11/03 15:19:17;;;;;;;2.90;1.10;;;17.80;68.10;;;;;;10425064;28;20481;-65
2022/11/03 15:24:18;;;;;;;1.85;0.70;;;17.80;68.00;;;;;;10448261;28;20041;-66
2022/11/03 15:29:19;;;;;;;1.83;0.80;;;17.80;68.10;;;;;;10442167;28;20020;-66
2022/11/03 15:34:19;;;;;;;1.35;0.80;;;17.70;68.10;;;;;;10410537;28;20116;-66
2022/11/03 15:39:20;;;;;;;2.65;0.80;;;17.70;68.10;;;;;;10411534;28;20092;-66
2022/11/03 15:44:21;;;;;;;3.33;0.80;;;17.70;68.70;;;;;;10423509;28;20053;-66
2022/11/03 15:49:21;;;;;;;3.88;1.05;;;17.70;68.10;;;;;;10398601;28;20010;-65
2022/11/03 15:54:22;;;;;;;1.70;0.73;;;17.70;68.10;;;;;;10433374;28;20132;-66
2022/11/03 15:59:23;;;;;;;1.52;0.95;;;17.70;68.20;;;;;;10413451;28;20022;-65
2022/11/03 16:04:23;;;;;;;1.13;0.57;;;17.70;68.10;;;;;;10415928;28;20484;-66
2022/11/03 16:09:24;;;;;;;2.08;0.80;;;17.70;68.20;;;;;;10409562;28;20049;-66
2022/11/03 16:14:25;;;;;;;2.28;1.17;;;17.70;68.20;;;;;;10447268;28;20047;-66
2022/11/03 16:19:25;;;;;;;2.00;1.00;;;17.70;68.30;;;;;;10461457;28;20017;-65
2022/11/03 16:24:26;;;;;;;1.77;1.52;;;17.70;68.30;;;;;;10427273;28;20041;-66
2022/11/03 16:29:27;;;;;;;2.35;2.00;;;17.70;68.40;;;;;;10415093;28;20103;-66
2022/11/03 16:34:27;;;;;;;2.40;1.65;;;17.70;68.50;;;;;;10462682;28;20352;-66
2022/11/03 16:39:28;;;;;;;3.00;1.70;;;17.70;68.50;;;;;;10450420;28;20109;-66
2022/11/03 16:44:29;;;;;;;2.10;1.60;;;17.70;68.40;;;;;;10465286;28;20033;-66
2022/11/03 16:49:30;;;;;;;3.47;3.17;;;17.70;68.30;;;;;;10417160;28;20377;-66
2022/11/03 16:54:30;;;;;;;9.50;3.60;;;17.70;69.30;;;;;;10435716;28;20144;-66
2022/11/03 16:59:32;;;;;;;6.65;5.30;;;17.70;68.50;;;;;;10446185;28;20059;-66
2022/11/03 17:04:32;;;;;;;16.60;14.98;;;17.70;68.70;;;;;;10445364;28;20464;-69
2022/11/03 17:09:33;;;;;;;45.85;12.45;;;17.80;69.30;;;;;;10446058;28;20093;-65
2022/11/03 17:14:35;;;;;;;22.85;9.45;;;18.00;72.30;;;;;;10438279;28;20719;-66
2022/11/03 17:19:35;;;;;;;21.92;8.55;;;18.20;71.10;;;;;;10441616;28;20823;-65
2022/11/03 17:24:36;;;;;;;24.20;9.55;;;18.20;71.10;;;;;;10437510;28;20120;-66
2022/11/03 17:29:42;;;;;;;30.02;10.02;;;18.30;70.90;;;;;;10438021;28;20025;-63
2022/11/03 17:34:44;;;;;;;29.80;10.13;;;18.20;70.90;;;;;;10446529;28;20452;-64
2022/11/03 17:39:44;;;;;;;25.08;10.57;;;18.20;71.30;;;;;;10442978;28;20387;-64
2022/11/03 17:44:48;;;;;;;19.65;9.00;;;18.20;71.20;;;;;;10444146;28;20021;-64
2022/11/03 17:49:49;;;;;;;17.98;9.20;;;18.20;71.20;;;;;;10418708;28;20014;-63
2022/11/03 17:54:51;;;;;;;43.10;11.40;;;18.20;71.30;;;;;;10405916;28;20045;-64
2022/11/03 17:59:56;;;;;;;34.45;9.90;;;18.10;71.20;;;;;;10433670;28;20087;-63
2022/11/03 18:05:29;;;;;;;43.33;9.98;;;18.10;71.50;;;;;;10432680;28;20060;-63
2022/11/03 18:10:33;;;;;;;34.15;10.95;;;18.00;71.30;;;;;;10416246;28;20453;-64
2022/11/03 18:15:38;;;;;;;26.63;10.02;;;18.00;71.50;;;;;;10462335;28;20021;-64
2022/11/03 18:20:45;;;;;;;19.20;9.60;;;18.00;71.40;;;;;;10407031;28;20021;-64
2022/11/03 18:25:47;;;;;;;24.27;8.48;;;17.90;71.20;;;;;;10404181;28;20053;-64
2022/11/03 18:30:53;;;;;;;19.98;8.25;;;17.90;71.30;;;;;;10404052;28;20021;-64
2022/11/03 18:35:54;;;;;;;31.10;9.30;;;17.90;71.40;;;;;;10441326;28;20079;-64
2022/11/03 18:40:55;;;;;;;18.60;8.32;;;17.80;71.00;;;;;;10444171;28;20050;-64
2022/11/03 18:45:55;;;;;;;14.40;7.32;;;17.80;71.00;;;;;;10453220;28;20075;-64
2022/11/03 18:50:56;;;;;;;12.02;6.68;;;17.90;70.90;;;;;;10451127;28;20021;-65
2022/11/03 18:55:59;;;;;;;21.52;7.53;;;17.80;70.80;;;;;;10451170;28;20140;-64
2022/11/03 19:01:00;;;;;;;13.60;6.65;;;17.90;70.90;;;;;;10434708;28;20483;-64
2022/11/03 19:06:01;;;;;;;14.70;7.07;;;17.90;70.90;;;;;;10448302;28;20029;-64
2022/11/03 19:11:02;;;;;;;20.80;6.95;;;17.90;70.90;;;;;;10423298;28;20761;-64
2022/11/03 19:16:13;;;;;;;16.58;5.38;;;17.80;70.90;;;;;;10447020;28;20595;-65
2022/11/03 19:21:24;;;;;;;13.27;5.47;;;17.90;71.20;;;;;;10435342;28;20086;-64
2022/11/03 19:26:32;;;;;;;17.13;5.55;;;17.90;71.00;;;;;;10444770;28;20041;-63
2022/11/03 19:31:38;;;;;;;14.15;6.30;;;17.90;71.00;;;;;;10461416;28;20067;-64
2022/11/03 19:36:39;;;;;;;11.98;5.05;;;17.90;71.20;;;;;;10445568;28;20056;-63
2022/11/03 19:46:59;;;;;;;15.68;5.32;;;17.80;70.90;;;;;;10440544;28;20644;-63
2022/11/03 19:51:59;;;;;;;12.55;4.72;;;17.80;71.20;;;;;;10451512;28;20029;-65
2022/11/03 19:57:00;;;;;;;9.40;3.72;;;17.80;71.60;;;;;;10433167;28;20156;-62
2022/11/03 20:02:01;;;;;;;20.02;5.90;;;17.90;71.60;;;;;;10425362;28;20040;-68
2022/11/03 20:08:12;;;;;;;13.23;4.78;;;18.10;70.70;;;;;;10563034;27;20119;-54
2022/11/03 20:13:20;;;;;;;11.38;4.13;;;18.00;71.00;;;;;;10514489;28;20025;-55
2022/11/03 20:18:21;;;;;;;12.27;4.53;;;17.80;71.00;;;;;;10516538;28;20158;-55
2022/11/03 20:23:30;;;;;;;9.60;4.10;;;17.80;71.10;;;;;;10523787;28;20040;-54
2022/11/03 20:28:34;;;;;;;8.35;3.38;;;17.70;70.90;;;;;;10521403;28;20031;-53
2022/11/03 20:33:35;;;;;;;9.75;3.20;;;17.70;70.90;;;;;;10516363;28;20020;-54
2022/11/03 20:38:35;;;;;;;4.55;2.88;;;17.70;70.90;;;;;;10519188;28;20020;-54
2022/11/03 20:43:43;;;;;;;7.18;2.97;;;17.70;71.00;;;;;;10518216;28;20027;-53
2022/11/03 20:48:44;;;;;;;12.07;3.67;;;17.60;70.90;;;;;;10518670;28;20024;-54
2022/11/03 20:53:46;;;;;;;11.85;3.97;;;17.60;70.90;;;;;;10512661;28;20017;-55
2022/11/03 20:58:47;;;;;;;6.40;2.50;;;17.60;70.80;;;;;;10498729;28;20046;-55
2022/11/03 21:03:48;;;;;;;7.20;3.25;;;17.60;70.80;;;;;;10511950;28;20563;-55
2022/11/03 21:08:51;;;;;;;6.32;2.30;;;17.60;70.80;;;;;;10504850;28;20065;-54
2022/11/03 21:14:13;;;;;;;6.68;3.17;;;17.60;70.80;;;;;;10517046;28;20026;-55
2022/11/03 21:24:43;;;;;;;5.90;2.50;;;17.60;70.80;;;;;;10472867;28;20049;-55
2022/11/03 21:29:44;;;;;;;7.13;3.20;;;17.60;70.80;;;;;;10451721;28;20017;-54
2022/11/03 21:34:45;;;;;;;5.47;2.30;;;17.60;70.80;;;;;;10451909;28;20475;-55
2022/11/03 21:39:46;;;;;;;5.63;2.70;;;17.60;70.80;;;;;;10457340;28;20059;-54
2022/11/03 21:44:47;;;;;;;10.13;2.55;;;17.50;70.70;;;;;;10482599;28;20073;-54
2022/11/03 21:49:48;;;;;;;3.75;1.85;;;17.60;70.70;;;;;;10450038;28;20626;-53
2022/11/03 21:54:48;;;;;;;6.22;2.53;;;17.50;70.70;;;;;;10464518;28;20017;-54
2022/11/03 21:59:49;;;;;;;7.22;3.05;;;17.50;70.60;;;;;;10462538;28;20017;-53
2022/11/03 22:04:52;;;;;;;6.95;2.47;;;17.50;70.70;;;;;;10450205;28;20107;-54
2022/11/03 22:09:53;;;;;;;3.83;1.80;;;17.50;70.80;;;;;;10468486;28;20017;-55
2022/11/03 22:36:22;;;;;;;11.33;2.43;;;17.50;70.70;;;;;;10449636;28;20034;-52
2022/11/03 22:46:42;;;;;;;3.90;1.70;;;17.50;70.70;;;;;;10462076;28;20120;-55
2022/11/03 22:51:43;;;;;;;5.22;2.42;;;17.50;70.70;;;;;;10473623;28;20028;-54
2022/11/03 22:56:43;;;;;;;4.10;2.00;;;17.40;70.60;;;;;;10489624;28;20036;-55
2022/11/03 23:01:44;;;;;;;4.28;1.77;;;17.50;70.70;;;;;;10466757;28;20032;-55
2022/11/03 23:06:44;;;;;;;4.03;2.10;;;17.40;70.60;;;;;;10448134;28;20055;-55
2022/11/03 23:11:45;;;;;;;2.85;1.80;;;17.40;70.60;;;;;;10448068;28;20056;-54
2022/11/03 23:16:46;;;;;;;3.63;1.63;;;17.40;70.60;;;;;;10447686;28;20021;-54
2022/11/03 23:21:49;;;;;;;4.95;2.88;;;17.40;70.60;;;;;;10459114;28;20136;-55
2022/11/03 23:26:50;;;;;;;2.95;1.50;;;17.40;70.60;;;;;;10460792;28;20026;-55
2022/11/03 23:31:51;;;;;;;3.95;1.75;;;17.40;70.60;;;;;;10445957;28;20021;-54
2022/11/03 23:36:52;;;;;;;5.35;1.80;;;17.40;70.60;;;;;;10455712;28;20021;-55
2022/11/03 23:41:53;;;;;;;3.42;1.33;;;17.40;70.60;;;;;;10446583;28;20021;-55
2022/11/03 23:52:13;;;;;;;2.83;1.30;;;17.40;70.60;;;;;;10472626;28;20028;-54
